Terminal Aerodrome Forecast
Issued by NWS

Current Version | Previous Version | Text Only | Print | Product List | Glossary Off
Versions: 1 2 3 4 5 6 7 8 9 10 11 12 13 14 15 16 17

332
FTUS41 KILN 171035 AAA
TAFLCK
TAF AMD
KLCK 171035Z 1711/1806 16006KT P6SM VCTS SCT050CB BKN120
      TEMPO 1711/1714 4SM -TSRA BR OVC040CB
     FM171400 17007KT P6SM VCTS SCT040CB BKN100
     FM171900 21010G18KT P6SM -SHRA VCTS BKN035CB
     FM180400 22007KT P6SM BKN090=

USA.gov is the U.S. government's official web portal to all federal, state and local government web resources and services.